Cylinder, Iowa
Current Conditions -  °F | °C
As of 11:15 AM on Sunday 21 Dec 2014 (Local Time) from KAXA Reporting Station
Moderate Fog Moderate Fog  
Wind Chill: 25°   Ceiling: 200
Heat Index: 36°   Visibility: 0.25mi
Dew Point: 36°   Wind: 21mph
Humidity: 100%   Direction: 180°S
Pressure: 29.81"   Gusts: 28mph
Location:  43.09°N, 94.55°W
Report Text: KAXA 211715Z AUTO 18018G24KT 1/4SM FG OVC002 02/02 A2981 RMK AO2
Loading
Personal Weather Stations






























Interactive Weather Map New forecast layout! Learn more

10-Day Weather Forecast

Advertisements
Track Severe Weather on mobile